createdAt,value
2022-08-27T00:01:16.414Z,8.17
2022-08-27T00:02:38.525Z,12.97
2022-08-27T00:04:00.634Z,8.50
2022-08-27T00:05:23.247Z,19.20
2022-08-27T00:06:46.052Z,11.60
2022-08-27T00:08:11.105Z,17.73
2022-08-27T00:09:33.440Z,22.53
2022-08-27T00:10:55.682Z,12.07
2022-08-27T00:12:17.984Z,15.27
2022-08-27T00:13:40.628Z,9.67
2022-08-27T00:15:04.172Z,15.43
2022-08-27T00:16:26.358Z,13.70
2022-08-27T00:17:50.897Z,13.73
2022-08-27T00:19:12.997Z,13.50
2022-08-27T00:20:35.229Z,9.73
2022-08-27T00:21:57.747Z,13.90
2022-08-27T00:23:19.922Z,10.47
2022-08-27T00:24:45.202Z,9.63
2022-08-27T00:26:12.280Z,14.00
2022-08-27T00:27:34.559Z,14.30
2022-08-27T00:28:57.100Z,15.23
2022-08-27T00:30:22.635Z,14.60
2022-08-27T00:31:44.823Z,15.57
2022-08-27T00:33:07.263Z,13.93
2022-08-27T00:34:29.851Z,12.07
2022-08-27T00:35:52.755Z,13.17
2022-08-27T00:37:15.003Z,9.10
2022-08-27T00:38:38.628Z,12.50
2022-08-27T00:40:01.444Z,16.20
2022-08-27T00:41:24.591Z,21.73
2022-08-27T00:42:47.359Z,14.10
2022-08-27T00:44:10.299Z,15.20
2022-08-27T00:45:38.443Z,18.87
2022-08-27T00:47:05.487Z,20.13
2022-08-27T00:48:31.877Z,14.40
2022-08-27T00:50:05.041Z,11.97
2022-08-27T00:51:29.265Z,17.10
2022-08-27T00:53:02.365Z,15.23
2022-08-27T00:54:26.437Z,11.30
2022-08-27T00:56:16.841Z,14.00
2022-08-27T00:57:41.827Z,14.93
2022-08-27T00:59:04.645Z,17.97
2022-08-27T01:00:26.911Z,10.30
2022-08-27T01:02:07.679Z,9.20
2022-08-27T01:03:29.823Z,11.30
2022-08-27T01:05:01.215Z,14.40
2022-08-27T01:06:28.511Z,11.50
2022-08-27T01:07:53.708Z,6.87
2022-08-27T01:09:17.296Z,8.60
2022-08-27T01:10:41.210Z,14.03
2022-08-27T01:12:04.561Z,12.10
2022-08-27T01:13:53.447Z,6.63
2022-08-27T01:15:19.964Z,7.60
2022-08-27T01:16:49.535Z,12.20
2022-08-27T01:18:13.553Z,9.80
2022-08-27T01:19:47.308Z,14.93
2022-08-27T01:21:24.658Z,13.33
2022-08-27T01:22:55.359Z,15.87
2022-08-27T01:24:38.993Z,6.53
2022-08-27T01:26:02.704Z,8.80
2022-08-27T01:27:31.393Z,8.93
2022-08-27T01:28:53.622Z,10.30
2022-08-27T01:30:38.590Z,11.07
2022-08-27T01:32:10.161Z,8.07
2022-08-27T01:33:32.286Z,12.77
2022-08-27T01:34:54.681Z,8.83
2022-08-27T01:36:16.839Z,11.33
2022-08-27T01:37:40.929Z,12.60
2022-08-27T01:39:03.169Z,10.53
2022-08-27T01:40:27.648Z,9.50
2022-08-27T01:41:52.340Z,9.60
2022-08-27T01:43:14.628Z,9.20
2022-08-27T01:44:46.864Z,6.93
2022-08-27T01:46:09.063Z,8.53
2022-08-27T01:47:31.479Z,13.07
2022-08-27T01:48:54.722Z,9.10
2022-08-27T01:50:27.323Z,10.83
2022-08-27T01:51:49.478Z,16.87
2022-08-27T01:53:18.483Z,11.30
2022-08-27T01:54:41.103Z,11.07
2022-08-27T01:56:04.461Z,12.73
2022-08-27T01:57:27.143Z,12.07
2022-08-27T01:58:49.469Z,12.13
2022-08-27T02:00:18.667Z,14.03
2022-08-27T02:01:40.861Z,10.20
2022-08-27T02:03:03.804Z,17.60
2022-08-27T02:04:25.962Z,10.47
2022-08-27T02:05:48.384Z,14.60
2022-08-27T02:07:11.294Z,15.17
2022-08-27T02:08:34.062Z,10.73
2022-08-27T02:09:56.293Z,12.67
2022-08-27T02:11:18.442Z,12.50
2022-08-27T02:12:40.626Z,13.53
2022-08-27T02:14:02.781Z,16.70
2022-08-27T02:15:35.458Z,16.83
2022-08-27T02:16:57.712Z,14.43
2022-08-27T02:18:20.137Z,14.70
2022-08-27T02:19:42.356Z,18.13
2022-08-27T02:21:05.452Z,15.23
2022-08-27T02:22:28.508Z,20.77
2022-08-27T02:23:50.660Z,18.67
2022-08-27T02:25:15.251Z,13.97
2022-08-27T02:26:38.038Z,19.27
2022-08-27T02:28:00.832Z,15.30
2022-08-27T02:29:23.878Z,17.70
2022-08-27T02:30:46.032Z,22.33
2022-08-27T02:32:23.846Z,20.17
2022-08-27T02:33:50.558Z,18.30
2022-08-27T02:35:13.348Z,26.63
2022-08-27T02:36:37.293Z,22.90
2022-08-27T02:37:59.747Z,17.13
2022-08-27T02:39:22.087Z,28.10
2022-08-27T02:40:44.222Z,20.87
2022-08-27T02:42:06.464Z,22.70
2022-08-27T02:43:28.542Z,18.27
2022-08-27T02:44:50.736Z,19.80
2022-08-27T02:46:13.307Z,19.00
2022-08-27T02:47:35.908Z,18.27
2022-08-27T02:48:57.995Z,15.67
2022-08-27T02:50:20.412Z,23.03
2022-08-27T02:51:42.777Z,18.43
2022-08-27T02:53:06.452Z,16.87
2022-08-27T02:54:28.644Z,16.73
2022-08-27T02:55:52.164Z,17.63
2022-08-27T02:57:14.264Z,17.07
2022-08-27T02:58:36.952Z,17.50
2022-08-27T02:59:59.058Z,16.80
2022-08-27T03:01:21.411Z,16.30
2022-08-27T03:02:44.075Z,14.50
2022-08-27T03:04:06.374Z,16.83
2022-08-27T03:05:28.587Z,14.47
2022-08-27T03:06:50.687Z,16.73
2022-08-27T03:08:12.934Z,14.90
2022-08-27T03:09:35.165Z,14.93
2022-08-27T03:10:57.637Z,16.53
2022-08-27T03:12:20.011Z,19.70
2022-08-27T03:13:44.923Z,10.37
2022-08-27T03:15:09.404Z,17.17
2022-08-27T03:16:35.925Z,12.57
2022-08-27T03:18:16.565Z,15.03
2022-08-27T03:19:38.717Z,13.80
2022-08-27T03:21:02.576Z,14.77
2022-08-27T03:22:26.157Z,18.63
2022-08-27T03:23:48.735Z,15.80
2022-08-27T03:25:11.923Z,20.10
2022-08-27T03:26:34.438Z,17.20
2022-08-27T03:27:56.621Z,15.33
2022-08-27T03:29:18.754Z,13.20
2022-08-27T03:30:42.549Z,12.50
2022-08-27T03:32:07.034Z,17.97
2022-08-27T03:33:35.706Z,21.70
2022-08-27T03:34:58.780Z,18.70
2022-08-27T03:36:21.250Z,14.40
2022-08-27T03:37:43.476Z,21.50
2022-08-27T03:39:05.573Z,17.60
2022-08-27T03:40:27.758Z,16.03
2022-08-27T03:41:55.015Z,24.63
2022-08-27T03:43:20.369Z,13.07
2022-08-27T03:44:42.468Z,21.07
2022-08-27T03:46:05.083Z,15.10
2022-08-27T03:47:27.203Z,18.47
2022-08-27T03:48:49.596Z,16.63
2022-08-27T03:50:15.947Z,18.63
2022-08-27T03:51:38.051Z,23.97
2022-08-27T03:53:00.373Z,19.33
2022-08-27T03:54:22.920Z,18.83
2022-08-27T03:55:45.053Z,20.67
2022-08-27T03:57:07.614Z,25.90
2022-08-27T03:58:29.752Z,21.60
2022-08-27T03:59:53.024Z,17.53
2022-08-27T04:01:17.424Z,17.63
2022-08-27T04:02:41.194Z,20.70
2022-08-27T04:04:04.471Z,20.80
2022-08-27T04:05:26.643Z,16.43
2022-08-27T04:06:48.777Z,17.60
2022-08-27T04:08:11.078Z,23.90
2022-08-27T04:09:33.298Z,21.10
2022-08-27T04:10:55.969Z,21.83
2022-08-27T04:12:18.298Z,25.30
2022-08-27T04:13:41.109Z,22.03
2022-08-27T04:15:05.118Z,20.73
2022-08-27T04:16:27.280Z,21.67
2022-08-27T04:17:49.429Z,25.37
2022-08-27T04:19:12.984Z,27.33
2022-08-27T04:20:38.085Z,24.90
2022-08-27T04:22:05.734Z,21.13
2022-08-27T04:23:27.859Z,29.03
2022-08-27T04:24:50.386Z,22.40
2022-08-27T04:26:12.627Z,44.30
2022-08-27T04:27:34.862Z,22.90
2022-08-27T04:28:58.633Z,30.53
2022-08-27T04:30:20.705Z,33.10
2022-08-27T04:31:42.891Z,29.07
2022-08-27T04:33:05.029Z,28.03
2022-08-27T04:34:27.209Z,22.47
2022-08-27T04:35:58.639Z,29.53
2022-08-27T04:37:23.073Z,26.93
2022-08-27T04:38:45.711Z,21.30
2022-08-27T04:40:10.310Z,35.80
2022-08-27T04:41:33.574Z,26.30
2022-08-27T04:42:55.703Z,24.20
2022-08-27T04:44:17.769Z,21.63
2022-08-27T04:45:44.504Z,24.03
2022-08-27T04:47:06.712Z,26.50
2022-08-27T04:48:28.901Z,25.10
2022-08-27T04:49:51.008Z,27.77
2022-08-27T04:51:13.133Z,28.80
2022-08-27T04:52:41.162Z,28.63
2022-08-27T04:54:06.504Z,33.43
2022-08-27T04:55:28.610Z,33.03
2022-08-27T04:56:51.055Z,35.97
2022-08-27T04:58:13.688Z,28.03
2022-08-27T04:59:36.551Z,28.93
2022-08-27T05:01:01.595Z,28.33
2022-08-27T05:02:23.753Z,39.27
2022-08-27T05:03:46.223Z,43.57
2022-08-27T05:05:10.430Z,37.80
2022-08-27T05:06:36.867Z,30.10
2022-08-27T05:07:58.973Z,35.53
2022-08-27T05:09:21.114Z,32.90
2022-08-27T05:10:49.320Z,33.67
2022-08-27T05:12:11.444Z,40.40
2022-08-27T05:13:33.619Z,41.33
2022-08-27T05:14:55.717Z,34.67
2022-08-27T05:16:21.498Z,37.90
2022-08-27T05:17:44.159Z,37.77
2022-08-27T05:19:09.893Z,30.30
2022-08-27T05:20:32.351Z,36.60
2022-08-27T05:21:55.012Z,38.93
2022-08-27T05:23:18.330Z,32.20
2022-08-27T05:24:40.478Z,37.03
2022-08-27T05:26:02.569Z,35.47
2022-08-27T05:27:24.964Z,38.30
2022-08-27T05:28:47.252Z,42.47
2022-08-27T05:30:09.833Z,39.60
2022-08-27T05:31:32.653Z,42.70
2022-08-27T05:32:57.611Z,45.57
2022-08-27T05:34:24.625Z,32.50
2022-08-27T05:35:53.478Z,38.47
2022-08-27T05:37:15.589Z,35.33
2022-08-27T05:38:37.830Z,38.33
2022-08-27T05:40:05.203Z,38.30
2022-08-27T05:41:34.088Z,32.73
2022-08-27T05:42:56.526Z,34.47
2022-08-27T05:46:07.327Z,37.70
2022-08-27T05:47:29.520Z,38.00
2022-08-27T05:48:52.734Z,34.83
2022-08-27T05:50:15.325Z,40.40
2022-08-27T05:51:37.684Z,36.13
2022-08-27T05:52:59.977Z,47.97
2022-08-27T05:54:22.121Z,38.00
2022-08-27T05:55:46.032Z,35.43
2022-08-27T05:57:08.509Z,34.17
2022-08-27T05:58:49.336Z,45.73
2022-08-27T06:00:30.564Z,47.33
2022-08-27T06:01:54.532Z,49.43
2022-08-27T06:03:16.856Z,44.87
2022-08-27T06:04:39.007Z,41.97
2022-08-27T06:06:07.817Z,43.67
2022-08-27T06:07:30.200Z,46.07
2022-08-27T06:08:54.886Z,37.60
2022-08-27T06:10:17.187Z,56.97
2022-08-27T06:11:40.436Z,42.10
2022-08-27T06:13:03.542Z,44.90
2022-08-27T06:14:26.513Z,46.23
2022-08-27T06:15:48.994Z,44.50
2022-08-27T06:17:11.252Z,39.60
2022-08-27T06:18:34.457Z,48.10
2022-08-27T06:19:57.253Z,50.00
2022-08-27T06:21:24.286Z,38.17
2022-08-27T06:22:47.128Z,53.20
2022-08-27T06:24:12.253Z,55.20
2022-08-27T06:25:34.430Z,54.03
2022-08-27T06:26:57.481Z,46.33
2022-08-27T06:28:24.225Z,46.40
2022-08-27T06:29:46.756Z,46.50
2022-08-27T06:31:14.882Z,46.23
2022-08-27T06:32:37.317Z,49.73
2022-08-27T06:34:02.884Z,50.10
2022-08-27T06:35:33.517Z,47.97
2022-08-27T06:36:56.258Z,49.53
2022-08-27T06:38:18.379Z,50.57
2022-08-27T06:39:40.689Z,51.57
2022-08-27T06:41:07.609Z,44.33
2022-08-27T06:42:38.650Z,54.77
2022-08-27T06:44:02.557Z,56.63
2022-08-27T06:45:24.663Z,45.23
2022-08-27T06:46:47.151Z,52.83
2022-08-27T06:48:09.299Z,52.20
2022-08-27T06:49:33.508Z,51.03
2022-08-27T06:50:56.139Z,66.43
2022-08-27T06:52:18.207Z,53.47
2022-08-27T06:53:42.680Z,54.17
2022-08-27T06:55:05.385Z,45.80
2022-08-27T06:56:28.597Z,50.47
2022-08-27T06:57:50.698Z,48.97
2022-08-27T06:59:16.913Z,45.77
2022-08-27T07:00:39.425Z,56.60
2022-08-27T07:02:01.596Z,66.40
2022-08-27T07:03:23.737Z,54.17
2022-08-27T07:04:45.875Z,50.10
2022-08-27T07:06:08.208Z,44.90
2022-08-27T07:07:34.524Z,56.80
2022-08-27T07:08:58.985Z,47.23
2022-08-27T07:10:21.058Z,40.20
2022-08-27T07:11:43.811Z,47.03
2022-08-27T07:13:06.210Z,57.73
2022-08-27T07:14:28.678Z,52.23
2022-08-27T07:15:51.708Z,58.10
2022-08-27T07:17:15.947Z,47.77
2022-08-27T07:18:39.766Z,50.80
2022-08-27T07:20:04.970Z,55.00
2022-08-27T07:21:27.907Z,44.97
2022-08-27T07:22:50.047Z,45.30
2022-08-27T07:24:12.531Z,52.40
2022-08-27T07:25:34.680Z,59.73
2022-08-27T07:26:57.041Z,44.67
2022-08-27T07:28:19.550Z,55.87
2022-08-27T07:29:41.675Z,46.87
2022-08-27T07:31:05.859Z,44.20
2022-08-27T07:32:30.648Z,46.30
2022-08-27T07:33:54.075Z,41.90
2022-08-27T07:35:16.208Z,43.73
2022-08-27T07:36:38.760Z,43.77
2022-08-27T07:38:00.869Z,45.47
2022-08-27T07:39:23.041Z,41.63
2022-08-27T07:40:45.239Z,43.50
2022-08-27T07:42:25.940Z,40.27
2022-08-27T07:44:06.859Z,44.60
2022-08-27T07:45:30.196Z,42.57
2022-08-27T07:46:52.634Z,39.33
2022-08-27T07:48:16.429Z,46.93
2022-08-27T07:49:38.563Z,39.87
2022-08-27T07:51:05.201Z,42.30
2022-08-27T07:52:27.771Z,47.77
2022-08-27T07:53:50.507Z,39.60
2022-08-27T07:55:14.403Z,39.40
2022-08-27T07:56:36.570Z,46.90
2022-08-27T07:57:58.713Z,53.57
2022-08-27T07:59:21.593Z,50.53
2022-08-27T08:00:46.620Z,44.70
2022-08-27T08:02:08.848Z,39.03
2022-08-27T08:03:31.568Z,42.73
2022-08-27T08:04:53.879Z,36.33
2022-08-27T08:06:17.408Z,43.80
2022-08-27T08:07:39.842Z,37.20
2022-08-27T08:09:01.962Z,38.10
2022-08-27T08:10:24.519Z,55.87
2022-08-27T08:11:46.692Z,44.63
2022-08-27T08:13:08.905Z,46.77
2022-08-27T08:14:32.230Z,35.47
2022-08-27T08:15:54.322Z,35.30
2022-08-27T08:17:16.871Z,37.77
2022-08-27T08:18:39.141Z,40.43
2022-08-27T08:20:24.184Z,37.80
2022-08-27T08:21:43.613Z,40.23
2022-08-27T08:23:06.468Z,41.83
2022-08-27T08:24:33.237Z,32.70
2022-08-27T08:25:55.548Z,34.80
2022-08-27T08:27:17.665Z,35.50
2022-08-27T08:28:41.191Z,40.00
2022-08-27T08:30:03.686Z,29.73
2022-08-27T08:31:25.848Z,36.77
2022-08-27T08:32:48.218Z,29.17
2022-08-27T08:34:10.561Z,32.20
2022-08-27T08:35:41.331Z,36.17
2022-08-27T08:37:05.500Z,30.87
2022-08-27T08:38:28.367Z,33.23
2022-08-27T08:39:50.550Z,34.93
2022-08-27T08:41:49.321Z,39.40
2022-08-27T08:43:37.749Z,28.33
2022-08-27T08:45:01.108Z,34.70
2022-08-27T08:46:33.450Z,32.97
2022-08-27T08:48:19.393Z,28.63
2022-08-27T08:50:02.562Z,30.87
2022-08-27T08:51:36.767Z,35.00
2022-08-27T08:53:10.499Z,28.60
2022-08-27T08:54:34.662Z,29.27
2022-08-27T08:56:01.848Z,37.53
2022-08-27T08:57:29.990Z,36.00
2022-08-27T08:58:58.707Z,35.03
2022-08-27T09:00:21.177Z,31.40
2022-08-27T09:01:45.409Z,38.50
2022-08-27T09:03:07.979Z,33.83
2022-08-27T09:04:30.657Z,38.60
2022-08-27T09:06:06.326Z,36.27
2022-08-27T09:07:50.041Z,39.20
2022-08-27T09:09:47.143Z,34.20
2022-08-27T09:11:34.173Z,34.13
2022-08-27T09:13:00.351Z,35.63
2022-08-27T09:14:34.482Z,34.13
2022-08-27T09:16:03.498Z,24.40
2022-08-27T09:17:25.705Z,30.13
2022-08-27T09:18:52.326Z,32.20
2022-08-27T09:20:19.653Z,33.93
2022-08-27T09:21:50.757Z,31.93
2022-08-27T09:23:33.998Z,28.17
2022-08-27T09:25:07.189Z,29.03
2022-08-27T09:26:31.846Z,31.33
2022-08-27T09:28:00.417Z,33.80
2022-08-27T09:29:27.446Z,35.03
2022-08-27T09:30:49.673Z,31.10
2022-08-27T09:32:12.962Z,33.47
2022-08-27T09:33:44.373Z,27.47
2022-08-27T09:35:17.220Z,32.90
2022-08-27T09:37:06.230Z,30.00
2022-08-27T09:38:34.306Z,26.57
2022-08-27T09:40:22.801Z,30.80
2022-08-27T09:41:48.045Z,27.90
2022-08-27T09:43:15.860Z,28.60
2022-08-27T09:44:52.913Z,28.23
2022-08-27T09:46:24.383Z,30.67
2022-08-27T09:47:52.644Z,25.60
2022-08-27T09:49:16.477Z,27.07
2022-08-27T09:50:52.932Z,33.77
2022-08-27T09:52:55.801Z,33.50
2022-08-27T09:54:41.104Z,25.67
2022-08-27T09:56:07.809Z,30.87
2022-08-27T09:57:39.125Z,27.60
2022-08-27T09:59:03.770Z,31.50
2022-08-27T10:00:37.430Z,26.10
2022-08-27T10:02:19.255Z,31.73
2022-08-27T10:03:42.417Z,26.40
2022-08-27T10:05:16.705Z,22.80
2022-08-27T10:06:46.084Z,22.33
2022-08-27T10:08:32.035Z,24.43
2022-08-27T10:10:12.074Z,37.17
2022-08-27T10:12:06.137Z,29.70
2022-08-27T10:13:39.961Z,30.17
2022-08-27T10:15:05.407Z,27.20
2022-08-27T10:16:33.767Z,29.57
2022-08-27T10:18:35.042Z,30.20
2022-08-27T10:20:03.500Z,28.67
2022-08-27T10:21:56.596Z,29.33
2022-08-27T10:23:56.472Z,24.83
2022-08-27T10:25:30.937Z,25.97
2022-08-27T10:27:09.572Z,32.03
2022-08-27T10:28:41.007Z,30.87
2022-08-27T10:30:17.150Z,28.37
2022-08-27T10:31:56.834Z,26.13
2022-08-27T10:33:31.011Z,22.57
2022-08-27T10:35:10.268Z,24.17
2022-08-27T10:37:00.276Z,28.10
2022-08-27T10:38:44.886Z,30.17
2022-08-27T10:40:16.025Z,28.03
2022-08-27T10:41:45.367Z,24.33
2022-08-27T10:43:38.028Z,27.50
2022-08-27T10:45:08.140Z,31.37
2022-08-27T10:47:00.318Z,21.30
2022-08-27T10:48:29.279Z,23.90
2022-08-27T10:49:51.474Z,27.80
2022-08-27T10:51:35.343Z,26.43
2022-08-27T10:53:20.414Z,22.30
2022-08-27T10:55:12.861Z,20.93
2022-08-27T10:57:08.399Z,18.83
2022-08-27T10:58:53.960Z,24.93
2022-08-27T11:00:19.664Z,18.00
2022-08-27T11:01:51.805Z,22.00
2022-08-27T11:03:34.630Z,17.67
2022-08-27T11:05:06.739Z,19.87
2022-08-27T11:06:32.536Z,25.20
2022-08-27T11:08:08.301Z,19.70
2022-08-27T11:09:52.603Z,20.70
2022-08-27T11:13:22.558Z,17.47
2022-08-27T11:15:15.749Z,20.93
2022-08-27T11:16:45.804Z,20.83
2022-08-27T11:18:21.392Z,18.23
2022-08-27T11:19:43.490Z,24.33
2022-08-27T11:21:25.462Z,24.47
2022-08-27T11:22:52.980Z,21.17
2022-08-27T11:24:42.766Z,19.90
2022-08-27T11:26:06.937Z,23.93
2022-08-27T11:27:32.052Z,23.27
2022-08-27T11:28:57.114Z,24.73
2022-08-27T11:30:51.800Z,21.17
2022-08-27T11:32:32.782Z,22.23
2022-08-27T11:34:05.727Z,17.40
2022-08-27T11:36:21.857Z,19.80
2022-08-27T11:37:48.757Z,18.57
2022-08-27T11:39:49.759Z,17.40
2022-08-27T11:41:44.991Z,20.03
2022-08-27T11:43:13.195Z,22.47
2022-08-27T11:44:42.491Z,26.23
2022-08-27T11:46:08.471Z,18.53
2022-08-27T11:47:30.864Z,21.37
2022-08-27T11:49:04.233Z,17.27
2022-08-27T11:50:28.684Z,19.60
2022-08-27T11:51:59.727Z,18.00
2022-08-27T11:53:31.858Z,20.60
2022-08-27T11:55:36.664Z,13.93
2022-08-27T11:56:58.917Z,15.87
2022-08-27T11:58:21.786Z,18.27
2022-08-27T11:59:44.028Z,17.63
2022-08-27T12:01:26.678Z,19.03
2022-08-27T12:03:09.373Z,18.67
2022-08-27T12:04:31.603Z,13.43
2022-08-27T12:05:53.775Z,14.67
2022-08-27T12:07:18.859Z,16.67
2022-08-27T12:08:41.015Z,20.67
2022-08-27T12:10:03.134Z,17.20
2022-08-27T12:11:53.391Z,16.47
2022-08-27T12:13:28.909Z,12.23
2022-08-27T12:15:03.569Z,11.70
2022-08-27T12:17:06.031Z,12.60
2022-08-27T12:18:49.720Z,13.53
2022-08-27T12:20:27.736Z,14.33
2022-08-27T12:22:08.796Z,14.70
2022-08-27T12:23:42.446Z,14.97
2022-08-27T12:25:06.340Z,13.13
2022-08-27T12:26:41.648Z,14.67
2022-08-27T12:28:07.022Z,11.73
2022-08-27T12:29:53.233Z,13.23
2022-08-27T12:31:23.390Z,11.30
2022-08-27T12:32:48.244Z,13.90
2022-08-27T12:34:24.034Z,11.47
2022-08-27T12:35:52.499Z,11.40
2022-08-27T12:37:14.644Z,17.80
2022-08-27T12:38:42.712Z,11.80
2022-08-27T12:40:30.617Z,15.27
2022-08-27T12:41:53.347Z,11.33
2022-08-27T12:43:26.116Z,11.23
2022-08-27T12:44:54.909Z,8.90
2022-08-27T12:46:20.389Z,13.57
2022-08-27T12:47:51.021Z,12.50
2022-08-27T12:49:38.023Z,13.83
2022-08-27T12:51:06.969Z,11.47
2022-08-27T12:52:47.213Z,21.17
2022-08-27T12:54:47.231Z,12.00
2022-08-27T12:56:24.540Z,20.63
2022-08-27T12:58:02.567Z,10.37
2022-08-27T12:59:44.793Z,11.17
2022-08-27T13:01:09.970Z,11.77
2022-08-27T13:02:59.397Z,16.20
2022-08-27T13:04:28.779Z,12.13
2022-08-27T13:05:56.758Z,6.50
2022-08-27T13:07:37.959Z,12.30
2022-08-27T13:09:05.653Z,10.97
2022-08-27T13:10:31.122Z,16.53
2022-08-27T13:11:56.665Z,9.60
2022-08-27T13:13:25.211Z,11.97
2022-08-27T13:14:49.629Z,10.93
2022-08-27T13:16:21.730Z,6.07
2022-08-27T13:17:46.509Z,11.47
2022-08-27T13:19:20.228Z,9.30
2022-08-27T13:20:43.192Z,7.47
2022-08-27T13:22:25.912Z,9.93
2022-08-27T13:23:57.676Z,9.70
2022-08-27T13:25:55.967Z,9.17
2022-08-27T13:27:25.217Z,14.43
2022-08-27T13:28:48.580Z,9.20
2022-08-27T13:30:22.946Z,10.03
2022-08-27T13:31:55.303Z,13.63
2022-08-27T13:33:24.889Z,11.33
2022-08-27T13:34:47.919Z,9.53
2022-08-27T13:36:10.338Z,11.03
2022-08-27T13:37:41.720Z,12.27
2022-08-27T13:39:06.042Z,12.77
2022-08-27T13:40:34.555Z,11.60
2022-08-27T13:42:00.744Z,11.67
2022-08-27T13:43:33.103Z,16.37
2022-08-27T13:45:01.802Z,5.77
2022-08-27T13:46:30.736Z,8.20
2022-08-27T13:47:53.766Z,6.27
2022-08-27T13:49:22.601Z,8.60
2022-08-27T13:50:53.822Z,6.50
2022-08-27T13:52:25.123Z,7.47
2022-08-27T13:54:07.387Z,12.43
2022-08-27T13:55:30.858Z,4.80
2022-08-27T13:57:03.693Z,11.50
2022-08-27T13:58:31.987Z,4.27
2022-08-27T13:59:54.556Z,7.20
2022-08-27T14:01:28.800Z,9.37
2022-08-27T14:04:23.534Z,7.97
2022-08-27T14:05:48.476Z,5.07
2022-08-27T14:07:15.382Z,7.97
2022-08-27T14:08:37.693Z,4.33
2022-08-27T14:10:07.537Z,5.10
2022-08-27T14:11:29.648Z,2.53
2022-08-27T14:12:59.176Z,4.23
2022-08-27T14:14:22.472Z,7.23
2022-08-27T14:15:57.135Z,5.40
2022-08-27T14:17:34.639Z,5.43
2022-08-27T14:19:21.155Z,4.90
2022-08-27T14:20:43.285Z,8.83
2022-08-27T14:22:06.173Z,5.87
2022-08-27T14:23:29.566Z,9.03
2022-08-27T14:24:51.712Z,8.30
2022-08-27T14:26:15.338Z,5.27
2022-08-27T14:27:38.913Z,9.47
2022-08-27T14:29:04.207Z,6.00
2022-08-27T14:30:34.411Z,4.10
2022-08-27T14:31:56.513Z,7.03
2022-08-27T14:33:18.688Z,6.73
2022-08-27T14:34:40.887Z,4.47
2022-08-27T14:36:03.509Z,7.73
2022-08-27T14:37:25.752Z,4.97
2022-08-27T14:38:50.122Z,4.00
2022-08-27T14:40:13.734Z,4.23
2022-08-27T14:41:36.124Z,6.07
2022-08-27T14:42:58.332Z,6.50
2022-08-27T14:44:20.464Z,3.37
2022-08-27T14:45:44.962Z,7.03
2022-08-27T14:47:09.397Z,5.87
2022-08-27T14:48:34.539Z,4.17
2022-08-27T14:49:56.724Z,4.43
2022-08-27T14:51:25.067Z,6.73
2022-08-27T14:52:47.236Z,5.53
2022-08-27T14:54:11.047Z,6.13
2022-08-27T14:55:35.169Z,4.80
2022-08-27T14:56:59.174Z,7.67
2022-08-27T14:58:23.005Z,5.33
2022-08-27T14:59:45.289Z,4.43
2022-08-27T15:01:08.899Z,4.87
2022-08-27T15:02:32.070Z,2.93
2022-08-27T15:03:56.650Z,3.37
2022-08-27T15:05:20.186Z,5.63
2022-08-27T15:06:47.107Z,8.80
2022-08-27T15:08:13.565Z,4.73
2022-08-27T15:09:36.014Z,5.60
2022-08-27T15:10:58.542Z,4.63
2022-08-27T15:12:26.494Z,9.33
2022-08-27T15:13:50.427Z,6.20
2022-08-27T15:15:15.763Z,14.70
2022-08-27T15:16:41.302Z,4.20
2022-08-27T15:18:05.569Z,5.03
2022-08-27T15:19:30.462Z,9.50
2022-08-27T15:20:53.589Z,5.90
2022-08-27T15:22:22.813Z,6.93
2022-08-27T15:23:49.926Z,3.40
2022-08-27T15:25:16.077Z,5.90
2022-08-27T15:26:39.963Z,6.50
2022-08-27T15:28:02.857Z,5.67
2022-08-27T15:29:27.482Z,4.67
2022-08-27T15:30:50.916Z,6.80
2022-08-27T15:32:30.221Z,6.50
2022-08-27T15:33:53.349Z,8.60
2022-08-27T15:35:20.226Z,5.17
2022-08-27T15:36:43.493Z,4.27
2022-08-27T15:38:06.845Z,6.13
2022-08-27T15:39:30.066Z,6.50
2022-08-27T15:40:55.734Z,7.03
2022-08-27T15:42:19.357Z,7.10
2022-08-27T15:43:41.997Z,11.33
2022-08-27T15:45:05.265Z,10.10
2022-08-27T15:46:27.649Z,8.33
2022-08-27T15:47:49.765Z,5.33
2022-08-27T15:49:15.247Z,6.23
2022-08-27T15:50:37.578Z,4.57
2022-08-27T15:51:59.770Z,6.33
2022-08-27T15:53:24.657Z,4.13
2022-08-27T15:54:48.952Z,9.33
2022-08-27T15:56:11.034Z,5.70
2022-08-27T15:57:35.875Z,10.60
2022-08-27T15:58:57.948Z,6.97
2022-08-27T16:00:21.768Z,5.17
2022-08-27T16:01:44.836Z,5.30
2022-08-27T16:03:11.204Z,4.17
2022-08-27T16:04:33.577Z,5.13
2022-08-27T16:05:55.656Z,5.83
2022-08-27T16:07:21.127Z,7.10
2022-08-27T16:08:43.755Z,9.73
2022-08-27T16:10:07.186Z,5.47
2022-08-27T16:11:29.315Z,8.67
2022-08-27T16:12:51.578Z,5.47
2022-08-27T16:14:15.651Z,7.37
2022-08-27T16:15:39.644Z,5.20
2022-08-27T16:17:02.312Z,8.73
2022-08-27T16:18:30.153Z,6.50
2022-08-27T16:19:52.675Z,4.83
2022-08-27T16:21:14.889Z,7.10
2022-08-27T16:22:37.172Z,7.63
2022-08-27T16:23:59.441Z,4.43
2022-08-27T16:25:23.365Z,10.30
2022-08-27T16:26:45.833Z,4.80
2022-08-27T16:28:08.148Z,5.90
2022-08-27T16:29:30.352Z,8.33
2022-08-27T16:30:54.582Z,5.87
2022-08-27T16:32:19.019Z,6.33
2022-08-27T16:33:42.510Z,7.60
2022-08-27T16:35:05.279Z,7.30
2022-08-27T16:36:29.506Z,7.33
2022-08-27T16:37:52.411Z,9.70
2022-08-27T16:39:14.457Z,12.50
2022-08-27T16:40:41.972Z,7.30
2022-08-27T16:42:04.920Z,8.03
2022-08-27T16:43:28.516Z,5.73
2022-08-27T16:44:50.648Z,9.93
2022-08-27T16:46:12.788Z,10.30
2022-08-27T16:47:54.875Z,7.60
2022-08-27T16:49:35.649Z,5.70
2022-08-27T16:50:58.799Z,6.43
2022-08-27T16:52:23.317Z,7.33
2022-08-27T16:53:48.843Z,10.27
2022-08-27T16:55:11.787Z,6.77
2022-08-27T16:56:37.603Z,5.43
2022-08-27T16:58:00.089Z,5.30
2022-08-27T16:59:22.293Z,6.27
2022-08-27T17:00:46.146Z,5.23
2022-08-27T17:02:17.608Z,6.03
2022-08-27T17:05:34.185Z,7.50
2022-08-27T17:06:57.565Z,5.73
2022-08-27T17:08:26.136Z,7.40
2022-08-27T17:09:49.886Z,7.77
2022-08-27T17:11:22.511Z,6.87
2022-08-27T17:12:46.956Z,8.93
2022-08-27T17:14:12.070Z,7.60
2022-08-27T17:15:34.517Z,9.90
2022-08-27T17:16:56.637Z,10.03
2022-08-27T17:18:23.429Z,6.87
2022-08-27T17:19:46.108Z,9.17
2022-08-27T17:21:08.284Z,10.87
2022-08-27T17:22:30.936Z,13.73
2022-08-27T17:23:54.461Z,10.87
2022-08-27T17:25:16.583Z,10.33
2022-08-27T17:26:38.679Z,16.03
2022-08-27T17:28:00.812Z,9.60
2022-08-27T17:29:22.886Z,8.77
2022-08-27T17:30:45.054Z,9.23
2022-08-27T17:32:08.980Z,10.87
2022-08-27T17:33:52.181Z,15.50
2022-08-27T17:35:14.980Z,11.23
2022-08-27T17:36:37.117Z,8.23
2022-08-27T17:37:59.368Z,12.93
2022-08-27T17:39:22.055Z,11.43
2022-08-27T17:40:44.324Z,13.10
2022-08-27T17:42:07.474Z,9.50
2022-08-27T17:43:31.289Z,11.33
2022-08-27T17:44:53.530Z,10.50
2022-08-27T17:46:15.773Z,14.90
2022-08-27T17:47:38.034Z,11.47
2022-08-27T17:49:00.133Z,9.23
2022-08-27T17:50:22.197Z,9.37
2022-08-27T17:51:45.949Z,9.60
2022-08-27T17:53:10.576Z,12.37
2022-08-27T17:54:42.359Z,16.50
2022-08-27T17:56:04.519Z,10.43
2022-08-27T17:57:30.084Z,13.60
2022-08-27T17:59:03.283Z,13.40
2022-08-27T18:00:26.091Z,9.13
2022-08-27T18:01:48.389Z,9.43
2022-08-27T18:03:16.986Z,12.20
2022-08-27T18:04:39.113Z,9.73
2022-08-27T18:06:01.569Z,8.97
2022-08-27T18:07:23.743Z,7.90
2022-08-27T18:08:45.781Z,12.20
2022-08-27T18:10:13.912Z,13.03
2022-08-27T18:11:38.452Z,10.80
2022-08-27T18:13:00.605Z,15.10
2022-08-27T18:14:22.712Z,10.03
2022-08-27T18:15:45.123Z,11.40
2022-08-27T18:17:07.258Z,10.17
2022-08-27T18:18:29.553Z,11.53
2022-08-27T18:19:51.700Z,11.63
2022-08-27T18:21:14.015Z,15.97
2022-08-27T18:22:49.129Z,11.27
2022-08-27T18:24:11.344Z,10.23
2022-08-27T18:25:36.273Z,9.47
2022-08-27T18:26:58.817Z,10.40
2022-08-27T18:28:22.227Z,9.00
2022-08-27T18:29:44.295Z,8.77
2022-08-27T18:31:08.859Z,13.23
2022-08-27T18:32:31.295Z,13.30
2022-08-27T18:33:54.250Z,19.87
2022-08-27T18:35:17.737Z,9.50
2022-08-27T18:36:39.799Z,8.30
2022-08-27T18:38:02.420Z,10.80
2022-08-27T18:39:25.745Z,11.83
2022-08-27T18:40:50.127Z,9.30
2022-08-27T18:42:14.170Z,11.83
2022-08-27T18:43:36.561Z,10.83
2022-08-27T18:45:01.486Z,10.70
2022-08-27T18:46:27.753Z,10.10
2022-08-27T18:47:54.249Z,9.70
2022-08-27T18:49:16.416Z,13.33
2022-08-27T18:50:44.833Z,9.70
2022-08-27T18:52:08.840Z,10.50
2022-08-27T18:53:34.512Z,12.47
2022-08-27T18:54:56.633Z,16.30
2022-08-27T18:56:20.493Z,15.57